sensor_id;sensor_type;location;lat;lon;timestamp;P1;durP1;ratioP1;P2;durP2;ratioP2
32876;SDS011;19226;51.600;8.034;2023-03-01T00:00:30;9.48;;;6.75;;
32876;SDS011;19226;51.600;8.034;2023-03-01T00:03:15;11.13;;;7.07;;
32876;SDS011;19226;51.600;8.034;2023-03-01T00:05:59;14.95;;;7.43;;
32876;SDS011;19226;51.600;8.034;2023-03-01T00:08:45;11.82;;;7.35;;
32876;SDS011;19226;51.600;8.034;2023-03-01T00:11:31;11.93;;;7.32;;
32876;SDS011;19226;51.600;8.034;2023-03-01T00:14:16;10.07;;;7.10;;
32876;SDS011;19226;51.600;8.034;2023-03-01T00:17:01;9.45;;;6.65;;
32876;SDS011;19226;51.600;8.034;2023-03-01T00:19:45;10.40;;;6.68;;
32876;SDS011;19226;51.600;8.034;2023-03-01T00:22:30;7.93;;;6.70;;
32876;SDS011;19226;51.600;8.034;2023-03-01T00:25:16;10.30;;;7.32;;
32876;SDS011;19226;51.600;8.034;2023-03-01T00:28:01;10.43;;;6.95;;
32876;SDS011;19226;51.600;8.034;2023-03-01T00:30:47;11.55;;;7.10;;
32876;SDS011;19226;51.600;8.034;2023-03-01T00:33:32;14.88;;;6.93;;
32876;SDS011;19226;51.600;8.034;2023-03-01T00:36:17;10.65;;;7.32;;
32876;SDS011;19226;51.600;8.034;2023-03-01T00:39:02;12.98;;;7.90;;
32876;SDS011;19226;51.600;8.034;2023-03-01T00:41:48;11.32;;;7.93;;
32876;SDS011;19226;51.600;8.034;2023-03-01T00:44:33;12.73;;;7.43;;
32876;SDS011;19226;51.600;8.034;2023-03-01T00:47:17;15.35;;;8.13;;
32876;SDS011;19226;51.600;8.034;2023-03-01T00:50:02;15.88;;;8.77;;
32876;SDS011;19226;51.600;8.034;2023-03-01T00:52:46;13.65;;;7.97;;
32876;SDS011;19226;51.600;8.034;2023-03-01T00:55:36;13.35;;;8.32;;
32876;SDS011;19226;51.600;8.034;2023-03-01T00:58:20;14.23;;;7.68;;
32876;SDS011;19226;51.600;8.034;2023-03-01T01:01:09;14.18;;;7.72;;
32876;SDS011;19226;51.600;8.034;2023-03-01T01:04:05;13.02;;;7.97;;
32876;SDS011;19226;51.600;8.034;2023-03-01T01:06:51;17.27;;;8.68;;
32876;SDS011;19226;51.600;8.034;2023-03-01T01:09:36;12.52;;;8.45;;
32876;SDS011;19226;51.600;8.034;2023-03-01T01:12:20;14.77;;;8.65;;
32876;SDS011;19226;51.600;8.034;2023-03-01T01:15:05;13.73;;;7.95;;
32876;SDS011;19226;51.600;8.034;2023-03-01T01:17:50;10.80;;;7.32;;
32876;SDS011;19226;51.600;8.034;2023-03-01T01:20:35;14.88;;;8.68;;
32876;SDS011;19226;51.600;8.034;2023-03-01T01:23:20;11.13;;;8.57;;
32876;SDS011;19226;51.600;8.034;2023-03-01T01:26:09;12.68;;;9.10;;
32876;SDS011;19226;51.600;8.034;2023-03-01T01:28:58;14.82;;;8.60;;
32876;SDS011;19226;51.600;8.034;2023-03-01T01:31:44;11.40;;;7.95;;
32876;SDS011;19226;51.600;8.034;2023-03-01T01:34:28;13.20;;;8.27;;
32876;SDS011;19226;51.600;8.034;2023-03-01T01:37:13;10.60;;;7.63;;
32876;SDS011;19226;51.600;8.034;2023-03-01T01:39:58;9.40;;;7.47;;
32876;SDS011;19226;51.600;8.034;2023-03-01T01:42:43;11.40;;;7.82;;
32876;SDS011;19226;51.600;8.034;2023-03-01T01:45:29;13.43;;;8.23;;
32876;SDS011;19226;51.600;8.034;2023-03-01T01:48:18;12.85;;;7.13;;
32876;SDS011;19226;51.600;8.034;2023-03-01T01:51:06;9.77;;;7.38;;
32876;SDS011;19226;51.600;8.034;2023-03-01T01:53:56;11.80;;;7.50;;
32876;SDS011;19226;51.600;8.034;2023-03-01T01:56:47;10.07;;;6.80;;
32876;SDS011;19226;51.600;8.034;2023-03-01T01:59:35;12.85;;;7.53;;
32876;SDS011;19226;51.600;8.034;2023-03-01T02:02:21;13.85;;;8.30;;
32876;SDS011;19226;51.600;8.034;2023-03-01T02:05:17;14.60;;;8.07;;
32876;SDS011;19226;51.600;8.034;2023-03-01T02:08:10;18.20;;;8.43;;
32876;SDS011;19226;51.600;8.034;2023-03-01T02:10:56;15.23;;;7.55;;
32876;SDS011;19226;51.600;8.034;2023-03-01T02:13:43;15.00;;;8.35;;
32876;SDS011;19226;51.600;8.034;2023-03-01T02:16:28;12.45;;;7.55;;
32876;SDS011;19226;51.600;8.034;2023-03-01T02:19:25;12.05;;;8.15;;
32876;SDS011;19226;51.600;8.034;2023-03-01T02:22:24;13.23;;;7.75;;
32876;SDS011;19226;51.600;8.034;2023-03-01T02:30:59;21.70;;;9.75;;
32876;SDS011;19226;51.600;8.034;2023-03-01T02:34:04;13.85;;;8.60;;
32876;SDS011;19226;51.600;8.034;2023-03-01T02:36:53;15.18;;;9.45;;
32876;SDS011;19226;51.600;8.034;2023-03-01T02:39:48;15.70;;;9.52;;
32876;SDS011;19226;51.600;8.034;2023-03-01T02:42:51;14.30;;;9.52;;
32876;SDS011;19226;51.600;8.034;2023-03-01T02:45:42;13.75;;;9.15;;
32876;SDS011;19226;51.600;8.034;2023-03-01T02:48:45;21.92;;;9.15;;
32876;SDS011;19226;51.600;8.034;2023-03-01T02:57:51;15.50;;;8.80;;
32876;SDS011;19226;51.600;8.034;2023-03-01T03:00:38;16.40;;;9.43;;
32876;SDS011;19226;51.600;8.034;2023-03-01T03:03:31;13.77;;;9.32;;
32876;SDS011;19226;51.600;8.034;2023-03-01T03:06:15;17.73;;;8.95;;
32876;SDS011;19226;51.600;8.034;2023-03-01T03:09:00;14.13;;;9.10;;
32876;SDS011;19226;51.600;8.034;2023-03-01T03:11:46;13.93;;;8.90;;
32876;SDS011;19226;51.600;8.034;2023-03-01T03:14:30;17.70;;;9.77;;
32876;SDS011;19226;51.600;8.034;2023-03-01T03:17:18;14.52;;;8.90;;
32876;SDS011;19226;51.600;8.034;2023-03-01T03:20:03;18.20;;;10.35;;
32876;SDS011;19226;51.600;8.034;2023-03-01T03:22:50;18.55;;;10.10;;
32876;SDS011;19226;51.600;8.034;2023-03-01T03:25:36;14.80;;;8.65;;
32876;SDS011;19226;51.600;8.034;2023-03-01T03:28:21;13.95;;;8.85;;
32876;SDS011;19226;51.600;8.034;2023-03-01T03:31:06;15.90;;;9.35;;
32876;SDS011;19226;51.600;8.034;2023-03-01T03:33:51;14.68;;;8.80;;
32876;SDS011;19226;51.600;8.034;2023-03-01T03:36:37;16.52;;;9.73;;
32876;SDS011;19226;51.600;8.034;2023-03-01T03:39:23;13.65;;;9.13;;
32876;SDS011;19226;51.600;8.034;2023-03-01T03:42:07;16.17;;;9.30;;
32876;SDS011;19226;51.600;8.034;2023-03-01T03:44:51;16.25;;;9.95;;
32876;SDS011;19226;51.600;8.034;2023-03-01T03:47:36;18.30;;;10.75;;
32876;SDS011;19226;51.600;8.034;2023-03-01T03:50:20;17.77;;;9.45;;
32876;SDS011;19226;51.600;8.034;2023-03-01T03:53:09;16.48;;;10.40;;
32876;SDS011;19226;51.600;8.034;2023-03-01T03:55:55;15.82;;;9.82;;
32876;SDS011;19226;51.600;8.034;2023-03-01T03:58:40;17.80;;;10.18;;
32876;SDS011;19226;51.600;8.034;2023-03-01T04:01:24;13.98;;;9.77;;
32876;SDS011;19226;51.600;8.034;2023-03-01T04:04:09;14.23;;;8.82;;
32876;SDS011;19226;51.600;8.034;2023-03-01T04:06:53;12.95;;;9.63;;
32876;SDS011;19226;51.600;8.034;2023-03-01T04:09:38;16.67;;;9.40;;
32876;SDS011;19226;51.600;8.034;2023-03-01T04:12:22;15.63;;;9.85;;
32876;SDS011;19226;51.600;8.034;2023-03-01T04:15:07;17.52;;;9.48;;
32876;SDS011;19226;51.600;8.034;2023-03-01T04:17:58;20.20;;;10.25;;
32876;SDS011;19226;51.600;8.034;2023-03-01T04:20:44;15.20;;;10.13;;
32876;SDS011;19226;51.600;8.034;2023-03-01T04:23:29;17.02;;;10.52;;
32876;SDS011;19226;51.600;8.034;2023-03-01T04:26:13;21.23;;;10.65;;
32876;SDS011;19226;51.600;8.034;2023-03-01T04:28:58;15.10;;;9.48;;
32876;SDS011;19226;51.600;8.034;2023-03-01T04:31:43;15.95;;;10.57;;
32876;SDS011;19226;51.600;8.034;2023-03-01T04:34:27;21.30;;;11.80;;
32876;SDS011;19226;51.600;8.034;2023-03-01T04:37:12;13.40;;;10.18;;
32876;SDS011;19226;51.600;8.034;2023-03-01T04:39:56;18.73;;;11.25;;
32876;SDS011;19226;51.600;8.034;2023-03-01T04:42:41;18.27;;;10.93;;
32876;SDS011;19226;51.600;8.034;2023-03-01T04:45:26;17.70;;;10.57;;
32876;SDS011;19226;51.600;8.034;2023-03-01T04:48:11;16.98;;;10.35;;
32876;SDS011;19226;51.600;8.034;2023-03-01T04:50:56;19.45;;;10.90;;
32876;SDS011;19226;51.600;8.034;2023-03-01T04:53:42;16.58;;;10.05;;
32876;SDS011;19226;51.600;8.034;2023-03-01T04:56:27;18.33;;;9.45;;
32876;SDS011;19226;51.600;8.034;2023-03-01T04:59:11;16.63;;;10.05;;
32876;SDS011;19226;51.600;8.034;2023-03-01T05:01:56;20.45;;;10.68;;
32876;SDS011;19226;51.600;8.034;2023-03-01T05:04:41;16.38;;;10.43;;
32876;SDS011;19226;51.600;8.034;2023-03-01T05:07:25;17.08;;;9.77;;
32876;SDS011;19226;51.600;8.034;2023-03-01T05:10:10;17.95;;;10.68;;
32876;SDS011;19226;51.600;8.034;2023-03-01T05:12:55;20.20;;;11.13;;
32876;SDS011;19226;51.600;8.034;2023-03-01T05:15:41;22.42;;;11.32;;
32876;SDS011;19226;51.600;8.034;2023-03-01T05:18:26;19.52;;;10.18;;
32876;SDS011;19226;51.600;8.034;2023-03-01T05:21:13;17.65;;;10.30;;
32876;SDS011;19226;51.600;8.034;2023-03-01T05:24:01;21.55;;;12.43;;
32876;SDS011;19226;51.600;8.034;2023-03-01T05:26:45;16.30;;;10.75;;
32876;SDS011;19226;51.600;8.034;2023-03-01T05:29:32;24.27;;;10.55;;
32876;SDS011;19226;51.600;8.034;2023-03-01T05:32:18;24.15;;;11.35;;
32876;SDS011;19226;51.600;8.034;2023-03-01T05:35:03;20.80;;;11.88;;
32876;SDS011;19226;51.600;8.034;2023-03-01T05:37:49;23.45;;;11.95;;
32876;SDS011;19226;51.600;8.034;2023-03-01T05:40:35;19.98;;;11.70;;
32876;SDS011;19226;51.600;8.034;2023-03-01T05:43:19;25.30;;;12.15;;
32876;SDS011;19226;51.600;8.034;2023-03-01T05:46:04;19.50;;;11.02;;
32876;SDS011;19226;51.600;8.034;2023-03-01T05:48:49;17.45;;;11.15;;
32876;SDS011;19226;51.600;8.034;2023-03-01T05:51:33;29.33;;;11.80;;
32876;SDS011;19226;51.600;8.034;2023-03-01T05:54:18;21.80;;;12.38;;
32876;SDS011;19226;51.600;8.034;2023-03-01T05:57:03;21.85;;;10.45;;
32876;SDS011;19226;51.600;8.034;2023-03-01T05:59:48;23.70;;;13.35;;
32876;SDS011;19226;51.600;8.034;2023-03-01T06:02:32;24.40;;;11.88;;
32876;SDS011;19226;51.600;8.034;2023-03-01T06:05:17;23.67;;;11.85;;
32876;SDS011;19226;51.600;8.034;2023-03-01T06:08:02;18.88;;;11.52;;
32876;SDS011;19226;51.600;8.034;2023-03-01T06:10:47;23.48;;;12.52;;
32876;SDS011;19226;51.600;8.034;2023-03-01T06:13:31;21.95;;;11.90;;
32876;SDS011;19226;51.600;8.034;2023-03-01T06:16:16;20.60;;;11.40;;
32876;SDS011;19226;51.600;8.034;2023-03-01T06:19:00;19.75;;;10.60;;
32876;SDS011;19226;51.600;8.034;2023-03-01T06:21:45;21.98;;;11.80;;
32876;SDS011;19226;51.600;8.034;2023-03-01T06:24:29;21.95;;;10.35;;
32876;SDS011;19226;51.600;8.034;2023-03-01T06:27:14;22.00;;;12.45;;
32876;SDS011;19226;51.600;8.034;2023-03-01T06:29:59;30.75;;;14.15;;
32876;SDS011;19226;51.600;8.034;2023-03-01T06:32:45;32.22;;;12.57;;
32876;SDS011;19226;51.600;8.034;2023-03-01T06:35:30;16.50;;;11.05;;
32876;SDS011;19226;51.600;8.034;2023-03-01T06:38:15;23.58;;;11.93;;
32876;SDS011;19226;51.600;8.034;2023-03-01T06:41:02;26.73;;;12.95;;
32876;SDS011;19226;51.600;8.034;2023-03-01T06:43:47;21.23;;;12.63;;
32876;SDS011;19226;51.600;8.034;2023-03-01T06:46:31;17.70;;;11.15;;
32876;SDS011;19226;51.600;8.034;2023-03-01T06:49:16;21.67;;;12.48;;
32876;SDS011;19226;51.600;8.034;2023-03-01T06:52:01;19.52;;;10.38;;
32876;SDS011;19226;51.600;8.034;2023-03-01T06:54:46;18.30;;;10.60;;
32876;SDS011;19226;51.600;8.034;2023-03-01T06:57:31;18.33;;;10.98;;
32876;SDS011;19226;51.600;8.034;2023-03-01T07:00:15;16.45;;;10.25;;
32876;SDS011;19226;51.600;8.034;2023-03-01T07:03:01;23.45;;;12.32;;
32876;SDS011;19226;51.600;8.034;2023-03-01T07:05:48;20.30;;;11.68;;
32876;SDS011;19226;51.600;8.034;2023-03-01T07:08:33;22.15;;;12.50;;
32876;SDS011;19226;51.600;8.034;2023-03-01T07:11:18;22.10;;;11.65;;
32876;SDS011;19226;51.600;8.034;2023-03-01T07:14:02;28.85;;;12.45;;
32876;SDS011;19226;51.600;8.034;2023-03-01T07:16:47;20.80;;;11.55;;
32876;SDS011;19226;51.600;8.034;2023-03-01T07:19:31;24.15;;;12.13;;
32876;SDS011;19226;51.600;8.034;2023-03-01T07:22:16;26.15;;;13.05;;
32876;SDS011;19226;51.600;8.034;2023-03-01T07:25:00;24.30;;;14.15;;
32876;SDS011;19226;51.600;8.034;2023-03-01T07:27:48;22.23;;;12.32;;
32876;SDS011;19226;51.600;8.034;2023-03-01T07:30:36;23.70;;;12.10;;
32876;SDS011;19226;51.600;8.034;2023-03-01T07:33:20;20.10;;;11.75;;
32876;SDS011;19226;51.600;8.034;2023-03-01T07:36:05;19.58;;;11.77;;
32876;SDS011;19226;51.600;8.034;2023-03-01T07:38:50;24.30;;;11.63;;
32876;SDS011;19226;51.600;8.034;2023-03-01T07:41:35;18.83;;;11.27;;
32876;SDS011;19226;51.600;8.034;2023-03-01T07:44:20;17.23;;;10.68;;
32876;SDS011;19226;51.600;8.034;2023-03-01T07:47:04;28.08;;;11.80;;
32876;SDS011;19226;51.600;8.034;2023-03-01T07:49:49;18.13;;;11.68;;
32876;SDS011;19226;51.600;8.034;2023-03-01T07:52:34;20.35;;;10.38;;
32876;SDS011;19226;51.600;8.034;2023-03-01T07:55:18;17.13;;;10.15;;
32876;SDS011;19226;51.600;8.034;2023-03-01T07:58:03;23.25;;;10.68;;
32876;SDS011;19226;51.600;8.034;2023-03-01T08:00:48;16.33;;;10.70;;
32876;SDS011;19226;51.600;8.034;2023-03-01T08:03:32;22.63;;;12.02;;
32876;SDS011;19226;51.600;8.034;2023-03-01T08:06:18;18.38;;;11.10;;
32876;SDS011;19226;51.600;8.034;2023-03-01T08:09:02;21.70;;;11.27;;
32876;SDS011;19226;51.600;8.034;2023-03-01T08:11:47;18.73;;;10.60;;
32876;SDS011;19226;51.600;8.034;2023-03-01T08:14:31;14.23;;;9.32;;
32876;SDS011;19226;51.600;8.034;2023-03-01T08:17:16;17.70;;;10.60;;
32876;SDS011;19226;51.600;8.034;2023-03-01T08:20:01;20.13;;;11.00;;
32876;SDS011;19226;51.600;8.034;2023-03-01T08:22:47;16.33;;;10.77;;
32876;SDS011;19226;51.600;8.034;2023-03-01T08:25:32;17.70;;;10.23;;
32876;SDS011;19226;51.600;8.034;2023-03-01T08:28:16;16.23;;;10.35;;
32876;SDS011;19226;51.600;8.034;2023-03-01T08:31:01;18.65;;;11.77;;
32876;SDS011;19226;51.600;8.034;2023-03-01T08:33:47;14.70;;;9.93;;
32876;SDS011;19226;51.600;8.034;2023-03-01T08:36:38;18.85;;;10.07;;
32876;SDS011;19226;51.600;8.034;2023-03-01T08:39:24;17.73;;;10.20;;
32876;SDS011;19226;51.600;8.034;2023-03-01T08:42:09;23.40;;;10.05;;
32876;SDS011;19226;51.600;8.034;2023-03-01T08:44:54;15.75;;;9.55;;
32876;SDS011;19226;51.600;8.034;2023-03-01T08:47:38;18.80;;;9.50;;
32876;SDS011;19226;51.600;8.034;2023-03-01T08:50:23;18.10;;;10.52;;
32876;SDS011;19226;51.600;8.034;2023-03-01T08:53:08;16.42;;;9.25;;
32876;SDS011;19226;51.600;8.034;2023-03-01T08:55:52;15.48;;;9.18;;
32876;SDS011;19226;51.600;8.034;2023-03-01T08:58:37;14.73;;;8.55;;
32876;SDS011;19226;51.600;8.034;2023-03-01T09:01:26;52.63;;;18.98;;
32876;SDS011;19226;51.600;8.034;2023-03-01T09:04:11;21.92;;;10.77;;
32876;SDS011;19226;51.600;8.034;2023-03-01T09:06:56;20.08;;;9.52;;
32876;SDS011;19226;51.600;8.034;2023-03-01T09:09:40;11.68;;;8.32;;
32876;SDS011;19226;51.600;8.034;2023-03-01T09:12:25;20.10;;;10.82;;
32876;SDS011;19226;51.600;8.034;2023-03-01T09:15:10;13.65;;;7.97;;
32876;SDS011;19226;51.600;8.034;2023-03-01T09:17:55;13.15;;;8.32;;
32876;SDS011;19226;51.600;8.034;2023-03-01T09:20:39;14.68;;;8.80;;
32876;SDS011;19226;51.600;8.034;2023-03-01T09:23:24;13.45;;;8.48;;
32876;SDS011;19226;51.600;8.034;2023-03-01T09:26:09;20.00;;;10.45;;
32876;SDS011;19226;51.600;8.034;2023-03-01T09:28:55;11.95;;;8.15;;
32876;SDS011;19226;51.600;8.034;2023-03-01T09:31:41;16.75;;;8.73;;
32876;SDS011;19226;51.600;8.034;2023-03-01T09:34:26;14.73;;;8.32;;
32876;SDS011;19226;51.600;8.034;2023-03-01T09:37:11;14.68;;;8.70;;
32876;SDS011;19226;51.600;8.034;2023-03-01T09:39:56;19.55;;;8.73;;
32876;SDS011;19226;51.600;8.034;2023-03-01T09:42:45;12.02;;;8.25;;
32876;SDS011;19226;51.600;8.034;2023-03-01T09:45:51;20.15;;;8.93;;
32876;SDS011;19226;51.600;8.034;2023-03-01T09:48:41;14.07;;;7.63;;
32876;SDS011;19226;51.600;8.034;2023-03-01T09:51:33;12.52;;;7.15;;
32876;SDS011;19226;51.600;8.034;2023-03-01T09:54:20;9.48;;;7.15;;
32876;SDS011;19226;51.600;8.034;2023-03-01T10:06:15;10.10;;;7.15;;
32876;SDS011;19226;51.600;8.034;2023-03-01T10:09:07;11.43;;;7.15;;
32876;SDS011;19226;51.600;8.034;2023-03-01T10:11:56;7.63;;;6.00;;
32876;SDS011;19226;51.600;8.034;2023-03-01T10:17:57;11.10;;;6.10;;
32876;SDS011;19226;51.600;8.034;2023-03-01T10:20:56;9.68;;;6.28;;
32876;SDS011;19226;51.600;8.034;2023-03-01T10:23:45;10.55;;;6.70;;
32876;SDS011;19226;51.600;8.034;2023-03-01T10:29:47;15.25;;;7.22;;
32876;SDS011;19226;51.600;8.034;2023-03-01T10:32:42;11.65;;;6.50;;
32876;SDS011;19226;51.600;8.034;2023-03-01T10:35:28;12.48;;;6.45;;
32876;SDS011;19226;51.600;8.034;2023-03-01T10:38:14;13.05;;;7.65;;
32876;SDS011;19226;51.600;8.034;2023-03-01T10:41:05;7.97;;;6.22;;
32876;SDS011;19226;51.600;8.034;2023-03-01T10:43:51;11.18;;;6.18;;
32876;SDS011;19226;51.600;8.034;2023-03-01T10:46:44;14.77;;;6.10;;
32876;SDS011;19226;51.600;8.034;2023-03-01T10:49:29;8.25;;;5.95;;
32876;SDS011;19226;51.600;8.034;2023-03-01T10:52:18;7.82;;;5.93;;
32876;SDS011;19226;51.600;8.034;2023-03-01T11:01:04;7.28;;;5.50;;
32876;SDS011;19226;51.600;8.034;2023-03-01T11:06:59;9.73;;;6.57;;
32876;SDS011;19226;51.600;8.034;2023-03-01T11:12:29;9.05;;;5.65;;
32876;SDS011;19226;51.600;8.034;2023-03-01T11:15:20;11.27;;;6.20;;
32876;SDS011;19226;51.600;8.034;2023-03-01T11:18:19;9.88;;;6.45;;
32876;SDS011;19226;51.600;8.034;2023-03-01T11:21:05;11.13;;;6.65;;
32876;SDS011;19226;51.600;8.034;2023-03-01T11:23:52;12.57;;;6.85;;
32876;SDS011;19226;51.600;8.034;2023-03-01T11:26:38;7.32;;;6.47;;
32876;SDS011;19226;51.600;8.034;2023-03-01T11:32:52;11.10;;;6.82;;
32876;SDS011;19226;51.600;8.034;2023-03-01T11:35:53;10.93;;;6.97;;
32876;SDS011;19226;51.600;8.034;2023-03-01T11:39:02;10.80;;;6.68;;
32876;SDS011;19226;51.600;8.034;2023-03-01T11:42:02;9.10;;;6.75;;
32876;SDS011;19226;51.600;8.034;2023-03-01T11:44:55;12.35;;;7.15;;
32876;SDS011;19226;51.600;8.034;2023-03-01T11:51:09;12.30;;;7.35;;
32876;SDS011;19226;51.600;8.034;2023-03-01T11:54:17;11.15;;;5.75;;
32876;SDS011;19226;51.600;8.034;2023-03-01T11:57:20;15.57;;;7.05;;
32876;SDS011;19226;51.600;8.034;2023-03-01T12:14:21;8.82;;;5.45;;
32876;SDS011;19226;51.600;8.034;2023-03-01T12:30:42;10.40;;;6.38;;
32876;SDS011;19226;51.600;8.034;2023-03-01T12:36:42;10.98;;;5.93;;
32876;SDS011;19226;51.600;8.034;2023-03-01T12:39:57;9.45;;;5.40;;
32876;SDS011;19226;51.600;8.034;2023-03-01T12:49:25;7.60;;;5.28;;
32876;SDS011;19226;51.600;8.034;2023-03-01T12:55:21;5.72;;;4.72;;
32876;SDS011;19226;51.600;8.034;2023-03-01T13:13:26;10.07;;;5.32;;
32876;SDS011;19226;51.600;8.034;2023-03-01T13:19:19;8.52;;;5.15;;
32876;SDS011;19226;51.600;8.034;2023-03-01T13:25:13;9.20;;;5.25;;
32876;SDS011;19226;51.600;8.034;2023-03-01T13:34:03;8.32;;;5.75;;
32876;SDS011;19226;51.600;8.034;2023-03-01T13:36:50;9.32;;;5.28;;
32876;SDS011;19226;51.600;8.034;2023-03-01T13:39:39;6.00;;;4.47;;
32876;SDS011;19226;51.600;8.034;2023-03-01T13:48:25;6.30;;;5.03;;
32876;SDS011;19226;51.600;8.034;2023-03-01T13:51:15;6.82;;;4.70;;
32876;SDS011;19226;51.600;8.034;2023-03-01T13:54:00;7.82;;;5.50;;
32876;SDS011;19226;51.600;8.034;2023-03-01T13:56:44;8.68;;;4.90;;
32876;SDS011;19226;51.600;8.034;2023-03-01T13:59:29;9.13;;;5.70;;
32876;SDS011;19226;51.600;8.034;2023-03-01T14:02:14;10.68;;;5.63;;
32876;SDS011;19226;51.600;8.034;2023-03-01T14:04:59;8.00;;;4.97;;
32876;SDS011;19226;51.600;8.034;2023-03-01T14:07:50;8.60;;;5.15;;
32876;SDS011;19226;51.600;8.034;2023-03-01T14:10:58;7.70;;;5.07;;
32876;SDS011;19226;51.600;8.034;2023-03-01T14:17:12;8.13;;;5.47;;
32876;SDS011;19226;51.600;8.034;2023-03-01T14:20:09;6.63;;;5.15;;
32876;SDS011;19226;51.600;8.034;2023-03-01T14:22:59;8.50;;;5.30;;
32876;SDS011;19226;51.600;8.034;2023-03-01T14:25:56;8.32;;;5.20;;
32876;SDS011;19226;51.600;8.034;2023-03-01T14:28:41;8.20;;;5.13;;
32876;SDS011;19226;51.600;8.034;2023-03-01T14:31:39;7.05;;;4.82;;
32876;SDS011;19226;51.600;8.034;2023-03-01T14:34:25;7.32;;;5.28;;
32876;SDS011;19226;51.600;8.034;2023-03-01T14:37:32;10.82;;;5.20;;
32876;SDS011;19226;51.600;8.034;2023-03-01T14:40:24;9.65;;;5.97;;
32876;SDS011;19226;51.600;8.034;2023-03-01T14:43:12;8.07;;;5.03;;
32876;SDS011;19226;51.600;8.034;2023-03-01T14:46:05;9.90;;;5.65;;
32876;SDS011;19226;51.600;8.034;2023-03-01T14:48:51;9.50;;;5.10;;
32876;SDS011;19226;51.600;8.034;2023-03-01T14:51:39;7.67;;;5.57;;
32876;SDS011;19226;51.600;8.034;2023-03-01T14:57:24;11.02;;;5.57;;
32876;SDS011;19226;51.600;8.034;2023-03-01T15:00:10;7.13;;;4.95;;
32876;SDS011;19226;51.600;8.034;2023-03-01T15:03:11;7.05;;;4.45;;
32876;SDS011;19226;51.600;8.034;2023-03-01T15:06:02;8.75;;;5.00;;
32876;SDS011;19226;51.600;8.034;2023-03-01T15:08:53;9.27;;;4.65;;
32876;SDS011;19226;51.600;8.034;2023-03-01T15:11:41;5.15;;;4.60;;
32876;SDS011;19226;51.600;8.034;2023-03-01T15:14:28;7.40;;;4.75;;
32876;SDS011;19226;51.600;8.034;2023-03-01T15:17:34;10.32;;;4.35;;
32876;SDS011;19226;51.600;8.034;2023-03-01T15:20:24;8.63;;;4.90;;
32876;SDS011;19226;51.600;8.034;2023-03-01T15:23:18;5.15;;;4.32;;
32876;SDS011;19226;51.600;8.034;2023-03-01T15:26:20;7.35;;;4.43;;
32876;SDS011;19226;51.600;8.034;2023-03-01T15:29:19;9.70;;;5.07;;
32876;SDS011;19226;51.600;8.034;2023-03-01T15:32:20;12.32;;;7.78;;
32876;SDS011;19226;51.600;8.034;2023-03-01T15:35:34;6.95;;;5.28;;
32876;SDS011;19226;51.600;8.034;2023-03-01T15:41:25;7.13;;;4.63;;
32876;SDS011;19226;51.600;8.034;2023-03-01T15:44:27;8.48;;;4.90;;
32876;SDS011;19226;51.600;8.034;2023-03-01T15:47:23;10.07;;;4.18;;
32876;SDS011;19226;51.600;8.034;2023-03-01T15:50:17;8.35;;;4.53;;
32876;SDS011;19226;51.600;8.034;2023-03-01T15:53:08;7.45;;;4.55;;
32876;SDS011;19226;51.600;8.034;2023-03-01T15:55:55;6.85;;;4.68;;
32876;SDS011;19226;51.600;8.034;2023-03-01T15:58:40;5.60;;;4.55;;
32876;SDS011;19226;51.600;8.034;2023-03-01T16:01:25;8.80;;;6.07;;
32876;SDS011;19226;51.600;8.034;2023-03-01T16:04:11;19.13;;;10.38;;
32876;SDS011;19226;51.600;8.034;2023-03-01T16:07:00;30.50;;;15.88;;
32876;SDS011;19226;51.600;8.034;2023-03-01T16:09:45;15.02;;;9.57;;
32876;SDS011;19226;51.600;8.034;2023-03-01T16:12:29;9.85;;;5.65;;
32876;SDS011;19226;51.600;8.034;2023-03-01T16:15:17;6.30;;;4.28;;
32876;SDS011;19226;51.600;8.034;2023-03-01T16:18:08;5.82;;;4.78;;
32876;SDS011;19226;51.600;8.034;2023-03-01T16:20:54;7.82;;;4.82;;
32876;SDS011;19226;51.600;8.034;2023-03-01T16:23:39;6.55;;;4.28;;
32876;SDS011;19226;51.600;8.034;2023-03-01T16:26:24;7.82;;;4.90;;
32876;SDS011;19226;51.600;8.034;2023-03-01T16:29:09;9.43;;;4.50;;
32876;SDS011;19226;51.600;8.034;2023-03-01T16:31:53;9.60;;;4.93;;
32876;SDS011;19226;51.600;8.034;2023-03-01T16:34:38;8.90;;;5.28;;
32876;SDS011;19226;51.600;8.034;2023-03-01T16:37:23;9.00;;;5.70;;
32876;SDS011;19226;51.600;8.034;2023-03-01T16:43:31;6.28;;;5.32;;
32876;SDS011;19226;51.600;8.034;2023-03-01T16:46:17;6.00;;;4.80;;
32876;SDS011;19226;51.600;8.034;2023-03-01T16:49:03;7.78;;;5.53;;
32876;SDS011;19226;51.600;8.034;2023-03-01T16:51:48;10.70;;;6.00;;
32876;SDS011;19226;51.600;8.034;2023-03-01T16:54:32;7.82;;;5.70;;
32876;SDS011;19226;51.600;8.034;2023-03-01T16:57:17;10.35;;;6.10;;
32876;SDS011;19226;51.600;8.034;2023-03-01T17:00:02;7.40;;;5.50;;
32876;SDS011;19226;51.600;8.034;2023-03-01T17:02:51;10.35;;;6.80;;
32876;SDS011;19226;51.600;8.034;2023-03-01T17:05:39;13.00;;;7.28;;
32876;SDS011;19226;51.600;8.034;2023-03-01T17:08:24;11.55;;;6.35;;
32876;SDS011;19226;51.600;8.034;2023-03-01T17:11:11;10.95;;;6.28;;
32876;SDS011;19226;51.600;8.034;2023-03-01T17:14:00;8.50;;;5.82;;
32876;SDS011;19226;51.600;8.034;2023-03-01T17:16:44;7.13;;;5.35;;
32876;SDS011;19226;51.600;8.034;2023-03-01T17:19:29;10.57;;;5.63;;
32876;SDS011;19226;51.600;8.034;2023-03-01T17:22:15;7.85;;;5.85;;
32876;SDS011;19226;51.600;8.034;2023-03-01T17:25:00;7.70;;;5.55;;
32876;SDS011;19226;51.600;8.034;2023-03-01T17:27:45;8.07;;;5.35;;
32876;SDS011;19226;51.600;8.034;2023-03-01T17:30:30;15.00;;;6.95;;
32876;SDS011;19226;51.600;8.034;2023-03-01T17:33:15;9.27;;;5.32;;
32876;SDS011;19226;51.600;8.034;2023-03-01T17:36:00;10.45;;;5.82;;
32876;SDS011;19226;51.600;8.034;2023-03-01T17:38:44;9.68;;;6.05;;
32876;SDS011;19226;51.600;8.034;2023-03-01T17:41:29;10.23;;;6.90;;
32876;SDS011;19226;51.600;8.034;2023-03-01T17:44:14;8.13;;;5.90;;
32876;SDS011;19226;51.600;8.034;2023-03-01T17:46:59;10.52;;;6.40;;
32876;SDS011;19226;51.600;8.034;2023-03-01T17:49:44;10.30;;;6.50;;
32876;SDS011;19226;51.600;8.034;2023-03-01T17:52:29;10.80;;;5.72;;
32876;SDS011;19226;51.600;8.034;2023-03-01T17:55:14;10.73;;;6.00;;
32876;SDS011;19226;51.600;8.034;2023-03-01T17:57:58;13.88;;;6.60;;
32876;SDS011;19226;51.600;8.034;2023-03-01T18:00:43;10.90;;;6.65;;
32876;SDS011;19226;51.600;8.034;2023-03-01T18:03:27;10.77;;;6.90;;
32876;SDS011;19226;51.600;8.034;2023-03-01T18:06:13;13.25;;;8.27;;
32876;SDS011;19226;51.600;8.034;2023-03-01T18:08:59;14.88;;;8.35;;
32876;SDS011;19226;51.600;8.034;2023-03-01T18:11:44;13.00;;;8.15;;
32876;SDS011;19226;51.600;8.034;2023-03-01T18:14:28;13.27;;;8.30;;
32876;SDS011;19226;51.600;8.034;2023-03-01T18:17:16;14.57;;;7.45;;
32876;SDS011;19226;51.600;8.034;2023-03-01T18:20:01;19.33;;;9.35;;
32876;SDS011;19226;51.600;8.034;2023-03-01T18:22:45;18.83;;;10.70;;
32876;SDS011;19226;51.600;8.034;2023-03-01T18:25:30;21.10;;;11.02;;
32876;SDS011;19226;51.600;8.034;2023-03-01T18:28:14;15.45;;;7.97;;
32876;SDS011;19226;51.600;8.034;2023-03-01T18:31:00;16.65;;;9.27;;
32876;SDS011;19226;51.600;8.034;2023-03-01T18:33:47;15.30;;;8.82;;
32876;SDS011;19226;51.600;8.034;2023-03-01T18:36:33;15.57;;;8.25;;
32876;SDS011;19226;51.600;8.034;2023-03-01T18:39:18;14.60;;;7.85;;
32876;SDS011;19226;51.600;8.034;2023-03-01T18:42:03;11.98;;;7.03;;
32876;SDS011;19226;51.600;8.034;2023-03-01T18:44:48;13.80;;;7.10;;